sensor_id;sensor_type;location;lat;lon;timestamp;temperature;humidity
3816;DHT22;1923;48.154;11.536;2023-06-22T00:00:55;22.30;99.90
3816;DHT22;1923;48.154;11.536;2023-06-22T00:03:24;22.30;99.90
3816;DHT22;1923;48.154;11.536;2023-06-22T00:05:53;22.30;99.90
3816;DHT22;1923;48.154;11.536;2023-06-22T00:08:21;22.20;99.90
3816;DHT22;1923;48.154;11.536;2023-06-22T00:10:51;22.30;99.90
3816;DHT22;1923;48.154;11.536;2023-06-22T00:13:19;22.20;99.90
3816;DHT22;1923;48.154;11.536;2023-06-22T00:15:47;22.10;99.90
3816;DHT22;1923;48.154;11.536;2023-06-22T00:18:15;22.00;99.90
3816;DHT22;1923;48.154;11.536;2023-06-22T00:20:43;22.00;99.90
3816;DHT22;1923;48.154;11.536;2023-06-22T00:23:12;22.10;99.90
3816;DHT22;1923;48.154;11.536;2023-06-22T00:25:42;22.10;99.90
3816;DHT22;1923;48.154;11.536;2023-06-22T00:28:12;22.00;99.90
3816;DHT22;1923;48.154;11.536;2023-06-22T00:30:40;21.90;99.90
3816;DHT22;1923;48.154;11.536;2023-06-22T00:33:08;21.90;99.90
3816;DHT22;1923;48.154;11.536;2023-06-22T00:35:36;21.80;99.90
3816;DHT22;1923;48.154;11.536;2023-06-22T00:38:04;21.70;99.90
3816;DHT22;1923;48.154;11.536;2023-06-22T00:40:33;21.70;99.90
3816;DHT22;1923;48.154;11.536;2023-06-22T00:43:01;21.70;99.90
3816;DHT22;1923;48.154;11.536;2023-06-22T00:45:30;21.70;99.90
3816;DHT22;1923;48.154;11.536;2023-06-22T00:47:59;21.60;99.90
3816;DHT22;1923;48.154;11.536;2023-06-22T00:50:30;21.60;99.90
3816;DHT22;1923;48.154;11.536;2023-06-22T00:53:03;21.50;99.90
3816;DHT22;1923;48.154;11.536;2023-06-22T00:55:35;21.50;99.90
3816;DHT22;1923;48.154;11.536;2023-06-22T00:58:06;21.50;99.90
3816;DHT22;1923;48.154;11.536;2023-06-22T01:00:40;21.70;99.90
3816;DHT22;1923;48.154;11.536;2023-06-22T01:03:09;21.60;99.90
3816;DHT22;1923;48.154;11.536;2023-06-22T01:05:38;21.70;99.90
3816;DHT22;1923;48.154;11.536;2023-06-22T01:08:15;21.50;99.90
3816;DHT22;1923;48.154;11.536;2023-06-22T01:10:48;21.60;99.90
3816;DHT22;1923;48.154;11.536;2023-06-22T01:13:25;21.60;99.90
3816;DHT22;1923;48.154;11.536;2023-06-22T01:16:02;21.50;99.90
3816;DHT22;1923;48.154;11.536;2023-06-22T01:18:32;21.30;99.90
3816;DHT22;1923;48.154;11.536;2023-06-22T01:21:04;21.40;99.90
3816;DHT22;1923;48.154;11.536;2023-06-22T01:23:51;21.50;99.90
3816;DHT22;1923;48.154;11.536;2023-06-22T01:26:25;21.40;99.90
3816;DHT22;1923;48.154;11.536;2023-06-22T01:28:59;21.40;99.90
3816;DHT22;1923;48.154;11.536;2023-06-22T01:31:28;21.30;99.90
3816;DHT22;1923;48.154;11.536;2023-06-22T01:34:00;21.40;99.90
3816;DHT22;1923;48.154;11.536;2023-06-22T01:36:29;21.40;99.90
3816;DHT22;1923;48.154;11.536;2023-06-22T01:38:58;21.50;99.90
3816;DHT22;1923;48.154;11.536;2023-06-22T01:41:29;21.40;99.90
3816;DHT22;1923;48.154;11.536;2023-06-22T01:43:59;21.30;99.90
3816;DHT22;1923;48.154;11.536;2023-06-22T01:46:29;21.40;99.90
3816;DHT22;1923;48.154;11.536;2023-06-22T01:48:57;21.50;99.90
3816;DHT22;1923;48.154;11.536;2023-06-22T01:51:25;21.40;99.90
3816;DHT22;1923;48.154;11.536;2023-06-22T01:53:53;21.40;99.90
3816;DHT22;1923;48.154;11.536;2023-06-22T01:56:21;21.30;99.90
3816;DHT22;1923;48.154;11.536;2023-06-22T01:58:54;21.40;99.90
3816;DHT22;1923;48.154;11.536;2023-06-22T02:01:27;21.30;99.90
3816;DHT22;1923;48.154;11.536;2023-06-22T02:04:03;21.30;99.90
3816;DHT22;1923;48.154;11.536;2023-06-22T02:06:36;21.30;99.90
3816;DHT22;1923;48.154;11.536;2023-06-22T02:09:09;21.30;99.90
3816;DHT22;1923;48.154;11.536;2023-06-22T02:11:41;21.20;99.90
3816;DHT22;1923;48.154;11.536;2023-06-22T02:14:11;21.20;99.90
3816;DHT22;1923;48.154;11.536;2023-06-22T02:16:41;21.40;99.90
3816;DHT22;1923;48.154;11.536;2023-06-22T02:19:09;21.50;99.90
3816;DHT22;1923;48.154;11.536;2023-06-22T02:21:37;21.40;99.90
3816;DHT22;1923;48.154;11.536;2023-06-22T02:24:06;21.30;99.90
3816;DHT22;1923;48.154;11.536;2023-06-22T02:26:34;21.40;99.90
3816;DHT22;1923;48.154;11.536;2023-06-22T02:29:03;21.40;99.90
3816;DHT22;1923;48.154;11.536;2023-06-22T02:31:31;21.30;99.90
3816;DHT22;1923;48.154;11.536;2023-06-22T02:34:00;21.20;99.90
3816;DHT22;1923;48.154;11.536;2023-06-22T02:36:28;21.20;99.90
3816;DHT22;1923;48.154;11.536;2023-06-22T02:38:57;21.20;99.90
3816;DHT22;1923;48.154;11.536;2023-06-22T02:41:25;21.10;99.90
3816;DHT22;1923;48.154;11.536;2023-06-22T02:43:53;21.00;99.90
3816;DHT22;1923;48.154;11.536;2023-06-22T02:46:21;21.10;99.90
3816;DHT22;1923;48.154;11.536;2023-06-22T02:48:49;21.00;99.90
3816;DHT22;1923;48.154;11.536;2023-06-22T02:51:19;21.00;99.90
3816;DHT22;1923;48.154;11.536;2023-06-22T02:53:47;20.90;99.90
3816;DHT22;1923;48.154;11.536;2023-06-22T02:56:15;21.00;99.90
3816;DHT22;1923;48.154;11.536;2023-06-22T02:58:44;21.00;99.90
3816;DHT22;1923;48.154;11.536;2023-06-22T03:01:12;21.00;99.90
3816;DHT22;1923;48.154;11.536;2023-06-22T03:03:40;20.90;99.90
3816;DHT22;1923;48.154;11.536;2023-06-22T03:06:09;20.90;99.90
3816;DHT22;1923;48.154;11.536;2023-06-22T03:08:42;20.70;99.90
3816;DHT22;1923;48.154;11.536;2023-06-22T03:11:10;20.80;99.90
3816;DHT22;1923;48.154;11.536;2023-06-22T03:13:38;20.70;99.90
3816;DHT22;1923;48.154;11.536;2023-06-22T03:16:06;20.60;99.90
3816;DHT22;1923;48.154;11.536;2023-06-22T03:18:34;20.70;99.90
3816;DHT22;1923;48.154;11.536;2023-06-22T03:21:02;20.80;99.90
3816;DHT22;1923;48.154;11.536;2023-06-22T03:23:31;20.80;99.90
3816;DHT22;1923;48.154;11.536;2023-06-22T03:26:00;20.70;99.90
3816;DHT22;1923;48.154;11.536;2023-06-22T03:28:28;20.70;99.90
3816;DHT22;1923;48.154;11.536;2023-06-22T03:30:57;20.70;99.90
3816;DHT22;1923;48.154;11.536;2023-06-22T03:33:25;20.80;99.90
3816;DHT22;1923;48.154;11.536;2023-06-22T03:35:53;20.60;99.90
3816;DHT22;1923;48.154;11.536;2023-06-22T03:38:22;20.50;99.90
3816;DHT22;1923;48.154;11.536;2023-06-22T03:40:50;20.30;99.90
3816;DHT22;1923;48.154;11.536;2023-06-22T03:43:19;20.30;99.90
3816;DHT22;1923;48.154;11.536;2023-06-22T03:45:47;20.30;99.90
3816;DHT22;1923;48.154;11.536;2023-06-22T03:48:15;20.30;99.90
3816;DHT22;1923;48.154;11.536;2023-06-22T03:50:43;20.20;99.90
3816;DHT22;1923;48.154;11.536;2023-06-22T03:53:11;20.30;99.90
3816;DHT22;1923;48.154;11.536;2023-06-22T03:55:47;20.30;99.90
3816;DHT22;1923;48.154;11.536;2023-06-22T03:58:16;20.40;99.90
3816;DHT22;1923;48.154;11.536;2023-06-22T04:00:47;20.50;99.90
3816;DHT22;1923;48.154;11.536;2023-06-22T04:03:15;20.40;99.90
3816;DHT22;1923;48.154;11.536;2023-06-22T04:05:46;20.40;99.90
3816;DHT22;1923;48.154;11.536;2023-06-22T04:08:14;20.30;99.90
3816;DHT22;1923;48.154;11.536;2023-06-22T04:10:43;20.30;99.90
3816;DHT22;1923;48.154;11.536;2023-06-22T04:13:11;20.30;99.90
3816;DHT22;1923;48.154;11.536;2023-06-22T04:15:39;20.30;99.90
3816;DHT22;1923;48.154;11.536;2023-06-22T04:18:09;20.30;99.90
3816;DHT22;1923;48.154;11.536;2023-06-22T04:20:37;20.40;99.90
3816;DHT22;1923;48.154;11.536;2023-06-22T04:23:05;20.40;99.90
3816;DHT22;1923;48.154;11.536;2023-06-22T04:25:33;20.40;99.90
3816;DHT22;1923;48.154;11.536;2023-06-22T04:28:02;20.50;99.90
3816;DHT22;1923;48.154;11.536;2023-06-22T04:30:32;20.60;99.90
3816;DHT22;1923;48.154;11.536;2023-06-22T04:33:01;20.60;99.90
3816;DHT22;1923;48.154;11.536;2023-06-22T04:35:30;20.60;99.90
3816;DHT22;1923;48.154;11.536;2023-06-22T04:37:58;20.60;99.90
3816;DHT22;1923;48.154;11.536;2023-06-22T04:40:26;20.60;99.90
3816;DHT22;1923;48.154;11.536;2023-06-22T04:42:55;20.60;99.90
3816;DHT22;1923;48.154;11.536;2023-06-22T04:45:23;20.60;99.90
3816;DHT22;1923;48.154;11.536;2023-06-22T04:47:51;20.70;99.90
3816;DHT22;1923;48.154;11.536;2023-06-22T04:50:19;20.70;99.90
3816;DHT22;1923;48.154;11.536;2023-06-22T04:52:50;20.70;99.90
3816;DHT22;1923;48.154;11.536;2023-06-22T04:55:19;20.70;99.90
3816;DHT22;1923;48.154;11.536;2023-06-22T04:57:48;20.90;99.90
3816;DHT22;1923;48.154;11.536;2023-06-22T05:00:17;21.00;99.90
3816;DHT22;1923;48.154;11.536;2023-06-22T05:02:46;21.00;99.90
3816;DHT22;1923;48.154;11.536;2023-06-22T05:05:15;21.20;99.90
3816;DHT22;1923;48.154;11.536;2023-06-22T05:07:44;21.20;99.90
3816;DHT22;1923;48.154;11.536;2023-06-22T05:10:16;21.30;99.90
3816;DHT22;1923;48.154;11.536;2023-06-22T05:12:44;21.30;99.90
3816;DHT22;1923;48.154;11.536;2023-06-22T05:15:12;21.20;99.90
3816;DHT22;1923;48.154;11.536;2023-06-22T05:17:40;21.40;99.90
3816;DHT22;1923;48.154;11.536;2023-06-22T05:20:11;21.40;99.90
3816;DHT22;1923;48.154;11.536;2023-06-22T05:22:40;21.50;99.90
3816;DHT22;1923;48.154;11.536;2023-06-22T05:25:10;21.60;99.90
3816;DHT22;1923;48.154;11.536;2023-06-22T05:27:40;21.50;99.90
3816;DHT22;1923;48.154;11.536;2023-06-22T05:30:09;21.60;99.90
3816;DHT22;1923;48.154;11.536;2023-06-22T05:32:38;21.70;99.90
3816;DHT22;1923;48.154;11.536;2023-06-22T05:35:06;21.80;99.90
3816;DHT22;1923;48.154;11.536;2023-06-22T05:37:35;22.00;99.90
3816;DHT22;1923;48.154;11.536;2023-06-22T05:40:04;21.90;99.90
3816;DHT22;1923;48.154;11.536;2023-06-22T05:42:33;22.00;99.90
3816;DHT22;1923;48.154;11.536;2023-06-22T05:45:04;22.20;99.90
3816;DHT22;1923;48.154;11.536;2023-06-22T05:47:32;22.10;99.90
3816;DHT22;1923;48.154;11.536;2023-06-22T05:50:00;22.30;99.90
3816;DHT22;1923;48.154;11.536;2023-06-22T05:52:33;22.40;99.90
3816;DHT22;1923;48.154;11.536;2023-06-22T05:55:02;22.50;99.90
3816;DHT22;1923;48.154;11.536;2023-06-22T05:57:30;22.60;99.90
3816;DHT22;1923;48.154;11.536;2023-06-22T05:59:58;22.60;99.90
3816;DHT22;1923;48.154;11.536;2023-06-22T06:02:27;22.60;99.90
3816;DHT22;1923;48.154;11.536;2023-06-22T06:04:55;22.50;99.90
3816;DHT22;1923;48.154;11.536;2023-06-22T06:07:24;22.30;99.90
3816;DHT22;1923;48.154;11.536;2023-06-22T06:09:53;22.50;99.90
3816;DHT22;1923;48.154;11.536;2023-06-22T06:12:21;22.70;99.90
3816;DHT22;1923;48.154;11.536;2023-06-22T06:14:49;22.80;99.90
3816;DHT22;1923;48.154;11.536;2023-06-22T06:17:18;23.00;99.90
3816;DHT22;1923;48.154;11.536;2023-06-22T06:19:47;23.10;99.90
3816;DHT22;1923;48.154;11.536;2023-06-22T06:22:15;23.20;99.90
3816;DHT22;1923;48.154;11.536;2023-06-22T06:24:43;23.30;99.90
3816;DHT22;1923;48.154;11.536;2023-06-22T06:27:11;23.20;99.90
3816;DHT22;1923;48.154;11.536;2023-06-22T06:29:39;23.30;99.90
3816;DHT22;1923;48.154;11.536;2023-06-22T06:32:08;23.60;99.90
3816;DHT22;1923;48.154;11.536;2023-06-22T06:34:36;23.70;99.90
3816;DHT22;1923;48.154;11.536;2023-06-22T06:37:06;23.90;99.90
3816;DHT22;1923;48.154;11.536;2023-06-22T06:39:34;24.00;99.90
3816;DHT22;1923;48.154;11.536;2023-06-22T06:42:02;24.20;99.90
3816;DHT22;1923;48.154;11.536;2023-06-22T06:44:30;24.00;99.90
3816;DHT22;1923;48.154;11.536;2023-06-22T06:46:58;24.00;99.90
3816;DHT22;1923;48.154;11.536;2023-06-22T06:49:26;24.30;99.90
3816;DHT22;1923;48.154;11.536;2023-06-22T06:51:54;24.40;99.90
3816;DHT22;1923;48.154;11.536;2023-06-22T06:54:24;24.40;99.90
3816;DHT22;1923;48.154;11.536;2023-06-22T06:56:54;24.40;99.90
3816;DHT22;1923;48.154;11.536;2023-06-22T06:59:22;24.40;99.90
3816;DHT22;1923;48.154;11.536;2023-06-22T07:01:50;24.60;99.90
3816;DHT22;1923;48.154;11.536;2023-06-22T07:04:19;24.70;99.90
3816;DHT22;1923;48.154;11.536;2023-06-22T07:06:47;24.80;99.90
3816;DHT22;1923;48.154;11.536;2023-06-22T07:09:15;24.90;99.90
3816;DHT22;1923;48.154;11.536;2023-06-22T07:11:46;25.10;99.90
3816;DHT22;1923;48.154;11.536;2023-06-22T07:14:14;25.10;99.90
3816;DHT22;1923;48.154;11.536;2023-06-22T07:16:42;25.20;99.90
3816;DHT22;1923;48.154;11.536;2023-06-22T07:19:11;25.20;99.90
3816;DHT22;1923;48.154;11.536;2023-06-22T07:21:39;25.30;99.90
3816;DHT22;1923;48.154;11.536;2023-06-22T07:24:07;25.30;99.90
3816;DHT22;1923;48.154;11.536;2023-06-22T07:26:35;25.40;99.90
3816;DHT22;1923;48.154;11.536;2023-06-22T07:29:05;25.60;99.90
3816;DHT22;1923;48.154;11.536;2023-06-22T07:31:33;25.80;99.90
3816;DHT22;1923;48.154;11.536;2023-06-22T07:34:01;25.90;99.90
3816;DHT22;1923;48.154;11.536;2023-06-22T07:36:29;25.90;99.90
3816;DHT22;1923;48.154;11.536;2023-06-22T07:38:57;26.00;99.90
3816;DHT22;1923;48.154;11.536;2023-06-22T07:41:25;25.90;99.90
3816;DHT22;1923;48.154;11.536;2023-06-22T07:43:53;26.10;99.90
3816;DHT22;1923;48.154;11.536;2023-06-22T07:46:23;26.10;99.90
3816;DHT22;1923;48.154;11.536;2023-06-22T07:48:51;26.00;99.90
3816;DHT22;1923;48.154;11.536;2023-06-22T07:51:22;26.10;99.90
3816;DHT22;1923;48.154;11.536;2023-06-22T07:53:50;26.30;99.90
3816;DHT22;1923;48.154;11.536;2023-06-22T07:56:18;26.40;99.90
3816;DHT22;1923;48.154;11.536;2023-06-22T07:58:47;26.70;99.90
3816;DHT22;1923;48.154;11.536;2023-06-22T08:01:16;26.90;99.90
3816;DHT22;1923;48.154;11.536;2023-06-22T08:03:47;27.10;99.90
3816;DHT22;1923;48.154;11.536;2023-06-22T08:06:16;27.40;99.90
3816;DHT22;1923;48.154;11.536;2023-06-22T08:08:44;27.60;99.90
3816;DHT22;1923;48.154;11.536;2023-06-22T08:11:14;27.90;99.90
3816;DHT22;1923;48.154;11.536;2023-06-22T08:13:43;28.00;99.90
3816;DHT22;1923;48.154;11.536;2023-06-22T08:16:11;27.90;99.90
3816;DHT22;1923;48.154;11.536;2023-06-22T08:18:39;27.90;99.90
3816;DHT22;1923;48.154;11.536;2023-06-22T08:21:08;27.90;99.90
3816;DHT22;1923;48.154;11.536;2023-06-22T08:23:38;28.20;99.90
3816;DHT22;1923;48.154;11.536;2023-06-22T08:26:06;28.80;99.90
3816;DHT22;1923;48.154;11.536;2023-06-22T08:28:34;29.20;99.90
3816;DHT22;1923;48.154;11.536;2023-06-22T08:31:02;29.30;99.90
3816;DHT22;1923;48.154;11.536;2023-06-22T08:33:30;29.50;99.90
3816;DHT22;1923;48.154;11.536;2023-06-22T08:35:59;29.70;99.90
3816;DHT22;1923;48.154;11.536;2023-06-22T08:38:28;29.80;99.90
3816;DHT22;1923;48.154;11.536;2023-06-22T08:40:56;30.60;99.90
3816;DHT22;1923;48.154;11.536;2023-06-22T08:43:25;31.00;99.90
3816;DHT22;1923;48.154;11.536;2023-06-22T08:45:53;31.30;99.90
3816;DHT22;1923;48.154;11.536;2023-06-22T08:48:21;31.20;99.90
3816;DHT22;1923;48.154;11.536;2023-06-22T08:50:49;30.90;99.90
3816;DHT22;1923;48.154;11.536;2023-06-22T08:53:17;31.00;99.90
3816;DHT22;1923;48.154;11.536;2023-06-22T08:55:46;30.60;99.90
3816;DHT22;1923;48.154;11.536;2023-06-22T08:58:14;31.00;99.90
3816;DHT22;1923;48.154;11.536;2023-06-22T09:00:42;31.10;99.90
3816;DHT22;1923;48.154;11.536;2023-06-22T09:03:10;31.20;99.90
3816;DHT22;1923;48.154;11.536;2023-06-22T09:05:39;31.70;99.90
3816;DHT22;1923;48.154;11.536;2023-06-22T09:08:07;32.30;99.90
3816;DHT22;1923;48.154;11.536;2023-06-22T09:10:35;32.20;99.90
3816;DHT22;1923;48.154;11.536;2023-06-22T09:13:04;32.40;99.90
3816;DHT22;1923;48.154;11.536;2023-06-22T09:15:32;32.10;99.90
3816;DHT22;1923;48.154;11.536;2023-06-22T09:18:01;32.20;99.90
3816;DHT22;1923;48.154;11.536;2023-06-22T09:20:30;32.50;99.90
3816;DHT22;1923;48.154;11.536;2023-06-22T09:22:59;32.40;99.40
3816;DHT22;1923;48.154;11.536;2023-06-22T09:25:27;32.60;99.50
3816;DHT22;1923;48.154;11.536;2023-06-22T09:27:55;32.30;99.00
3816;DHT22;1923;48.154;11.536;2023-06-22T09:30:25;32.60;99.30
3816;DHT22;1923;48.154;11.536;2023-06-22T09:32:53;32.90;98.30
3816;DHT22;1923;48.154;11.536;2023-06-22T09:35:21;33.60;98.10
3816;DHT22;1923;48.154;11.536;2023-06-22T09:37:49;34.50;97.40
3816;DHT22;1923;48.154;11.536;2023-06-22T09:40:20;35.00;95.80
3816;DHT22;1923;48.154;11.536;2023-06-22T09:42:48;35.20;96.00
3816;DHT22;1923;48.154;11.536;2023-06-22T09:45:16;36.10;94.00
3816;DHT22;1923;48.154;11.536;2023-06-22T09:47:46;35.90;93.30
3816;DHT22;1923;48.154;11.536;2023-06-22T09:50:14;36.10;93.00
3816;DHT22;1923;48.154;11.536;2023-06-22T09:52:42;36.40;91.80
3816;DHT22;1923;48.154;11.536;2023-06-22T09:55:14;36.50;91.30
3816;DHT22;1923;48.154;11.536;2023-06-22T09:57:43;37.30;90.10
3816;DHT22;1923;48.154;11.536;2023-06-22T10:00:12;37.30;88.70
3816;DHT22;1923;48.154;11.536;2023-06-22T10:02:42;37.40;88.60
3816;DHT22;1923;48.154;11.536;2023-06-22T10:05:12;37.20;87.90
3816;DHT22;1923;48.154;11.536;2023-06-22T10:07:41;37.70;85.90
3816;DHT22;1923;48.154;11.536;2023-06-22T10:10:12;37.60;85.60
3816;DHT22;1923;48.154;11.536;2023-06-22T10:12:42;37.30;85.40
3816;DHT22;1923;48.154;11.536;2023-06-22T10:15:11;38.20;85.20
3816;DHT22;1923;48.154;11.536;2023-06-22T10:17:40;38.60;83.30
3816;DHT22;1923;48.154;11.536;2023-06-22T10:20:09;38.30;82.90
3816;DHT22;1923;48.154;11.536;2023-06-22T10:22:41;38.60;81.90
3816;DHT22;1923;48.154;11.536;2023-06-22T10:25:10;38.20;80.80
3816;DHT22;1923;48.154;11.536;2023-06-22T10:27:39;38.70;79.90
3816;DHT22;1923;48.154;11.536;2023-06-22T10:30:10;38.70;80.70
3816;DHT22;1923;48.154;11.536;2023-06-22T10:32:40;39.60;78.10
3816;DHT22;1923;48.154;11.536;2023-06-22T10:35:11;40.20;77.50
3816;DHT22;1923;48.154;11.536;2023-06-22T10:37:45;41.20;75.60
3816;DHT22;1923;48.154;11.536;2023-06-22T10:40:15;41.60;73.70
3816;DHT22;1923;48.154;11.536;2023-06-22T10:42:44;41.60;72.50
3816;DHT22;1923;48.154;11.536;2023-06-22T10:45:13;41.40;72.50
3816;DHT22;1923;48.154;11.536;2023-06-22T10:47:42;41.90;71.40
3816;DHT22;1923;48.154;11.536;2023-06-22T10:50:10;41.80;71.10
3816;DHT22;1923;48.154;11.536;2023-06-22T10:52:39;41.90;69.60
3816;DHT22;1923;48.154;11.536;2023-06-22T10:55:10;41.70;69.20
3816;DHT22;1923;48.154;11.536;2023-06-22T10:57:38;41.80;69.40
3816;DHT22;1923;48.154;11.536;2023-06-22T11:00:11;42.20;69.00
3816;DHT22;1923;48.154;11.536;2023-06-22T11:02:39;42.30;68.10
3816;DHT22;1923;48.154;11.536;2023-06-22T11:05:08;42.00;66.70
3816;DHT22;1923;48.154;11.536;2023-06-22T11:07:37;40.70;68.20
3816;DHT22;1923;48.154;11.536;2023-06-22T11:10:12;39.50;69.30
3816;DHT22;1923;48.154;11.536;2023-06-22T11:12:40;38.00;73.30
3816;DHT22;1923;48.154;11.536;2023-06-22T11:15:09;37.50;75.30
3816;DHT22;1923;48.154;11.536;2023-06-22T11:17:37;37.10;76.20
3816;DHT22;1923;48.154;11.536;2023-06-22T11:20:06;36.70;77.30
3816;DHT22;1923;48.154;11.536;2023-06-22T11:22:38;36.30;77.90
3816;DHT22;1923;48.154;11.536;2023-06-22T11:25:07;35.90;79.50
3816;DHT22;1923;48.154;11.536;2023-06-22T11:27:37;35.70;80.10
3816;DHT22;1923;48.154;11.536;2023-06-22T11:30:06;35.20;81.60
3816;DHT22;1923;48.154;11.536;2023-06-22T11:32:34;35.40;82.70
3816;DHT22;1923;48.154;11.536;2023-06-22T11:35:03;35.40;82.90
3816;DHT22;1923;48.154;11.536;2023-06-22T11:37:31;35.20;81.80
3816;DHT22;1923;48.154;11.536;2023-06-22T11:40:00;35.20;83.20
3816;DHT22;1923;48.154;11.536;2023-06-22T11:42:33;35.20;83.10
3816;DHT22;1923;48.154;11.536;2023-06-22T11:45:05;35.10;84.10
3816;DHT22;1923;48.154;11.536;2023-06-22T11:47:33;34.60;84.60
3816;DHT22;1923;48.154;11.536;2023-06-22T11:50:01;34.70;85.70
3816;DHT22;1923;48.154;11.536;2023-06-22T11:52:29;34.40;85.80
3816;DHT22;1923;48.154;11.536;2023-06-22T11:54:57;34.50;85.20
3816;DHT22;1923;48.154;11.536;2023-06-22T11:57:26;34.30;85.60
3816;DHT22;1923;48.154;11.536;2023-06-22T11:59:54;34.50;86.00
3816;DHT22;1923;48.154;11.536;2023-06-22T12:02:23;34.60;86.00
3816;DHT22;1923;48.154;11.536;2023-06-22T12:04:52;34.70;85.90
3816;DHT22;1923;48.154;11.536;2023-06-22T12:07:22;34.60;84.80
3816;DHT22;1923;48.154;11.536;2023-06-22T12:09:50;34.60;85.80
3816;DHT22;1923;48.154;11.536;2023-06-22T12:12:18;34.40;86.30
3816;DHT22;1923;48.154;11.536;2023-06-22T12:14:46;34.20;86.80
3816;DHT22;1923;48.154;11.536;2023-06-22T12:17:14;34.20;87.00
3816;DHT22;1923;48.154;11.536;2023-06-22T12:19:43;34.30;86.80
3816;DHT22;1923;48.154;11.536;2023-06-22T12:22:11;34.40;86.40
3816;DHT22;1923;48.154;11.536;2023-06-22T12:24:40;34.50;86.30
3816;DHT22;1923;48.154;11.536;2023-06-22T12:27:08;34.30;86.60
3816;DHT22;1923;48.154;11.536;2023-06-22T12:29:36;34.40;86.50
3816;DHT22;1923;48.154;11.536;2023-06-22T12:32:05;34.40;86.50
3816;DHT22;1923;48.154;11.536;2023-06-22T12:34:33;34.40;86.80
3816;DHT22;1923;48.154;11.536;2023-06-22T12:37:03;34.40;87.00
3816;DHT22;1923;48.154;11.536;2023-06-22T12:39:32;34.20;86.80
3816;DHT22;1923;48.154;11.536;2023-06-22T12:42:00;34.30;86.70
3816;DHT22;1923;48.154;11.536;2023-06-22T12:44:28;34.20;86.50
3816;DHT22;1923;48.154;11.536;2023-06-22T12:46:57;34.30;87.60
3816;DHT22;1923;48.154;11.536;2023-06-22T12:49:25;34.00;87.70
3816;DHT22;1923;48.154;11.536;2023-06-22T12:51:53;34.00;88.70
3816;DHT22;1923;48.154;11.536;2023-06-22T12:54:22;33.90;89.20
3816;DHT22;1923;48.154;11.536;2023-06-22T12:56:50;33.90;89.30
3816;DHT22;1923;48.154;11.536;2023-06-22T12:59:20;34.10;89.50
3816;DHT22;1923;48.154;11.536;2023-06-22T13:01:50;34.40;89.10
3816;DHT22;1923;48.154;11.536;2023-06-22T13:04:28;34.40;87.90
3816;DHT22;1923;48.154;11.536;2023-06-22T13:07:02;33.80;88.40
3816;DHT22;1923;48.154;11.536;2023-06-22T13:09:51;33.70;89.80
3816;DHT22;1923;48.154;11.536;2023-06-22T13:12:24;33.80;89.90
3816;DHT22;1923;48.154;11.536;2023-06-22T13:14:57;34.00;89.60
3816;DHT22;1923;48.154;11.536;2023-06-22T13:17:30;34.00;90.00
3816;DHT22;1923;48.154;11.536;2023-06-22T13:20:02;34.20;89.70
3816;DHT22;1923;48.154;11.536;2023-06-22T13:22:37;34.10;89.80
3816;DHT22;1923;48.154;11.536;2023-06-22T13:25:14;34.00;89.60
3816;DHT22;1923;48.154;11.536;2023-06-22T13:27:50;34.00;89.30
3816;DHT22;1923;48.154;11.536;2023-06-22T13:30:21;34.10;89.40
3816;DHT22;1923;48.154;11.536;2023-06-22T13:32:49;34.00;89.20
3816;DHT22;1923;48.154;11.536;2023-06-22T13:35:17;34.10;89.10
3816;DHT22;1923;48.154;11.536;2023-06-22T13:37:45;34.00;89.30
3816;DHT22;1923;48.154;11.536;2023-06-22T13:40:15;34.10;89.00
3816;DHT22;1923;48.154;11.536;2023-06-22T13:42:43;34.10;88.30
3816;DHT22;1923;48.154;11.536;2023-06-22T13:45:11;34.00;89.40
3816;DHT22;1923;48.154;11.536;2023-06-22T13:47:39;33.90;89.40
3816;DHT22;1923;48.154;11.536;2023-06-22T13:50:08;34.10;89.70
3816;DHT22;1923;48.154;11.536;2023-06-22T13:52:36;34.10;89.80
3816;DHT22;1923;48.154;11.536;2023-06-22T13:55:05;34.10;89.80
3816;DHT22;1923;48.154;11.536;2023-06-22T13:57:36;34.10;88.70
3816;DHT22;1923;48.154;11.536;2023-06-22T14:00:06;34.00;87.80
3816;DHT22;1923;48.154;11.536;2023-06-22T14:02:34;34.00;88.90
3816;DHT22;1923;48.154;11.536;2023-06-22T14:05:03;33.90;89.40
3816;DHT22;1923;48.154;11.536;2023-06-22T14:07:31;33.80;89.00
3816;DHT22;1923;48.154;11.536;2023-06-22T14:09:59;33.80;89.60
3816;DHT22;1923;48.154;11.536;2023-06-22T14:12:28;33.80;89.70
3816;DHT22;1923;48.154;11.536;2023-06-22T14:14:57;33.80;89.40
3816;DHT22;1923;48.154;11.536;2023-06-22T14:17:26;33.80;90.00
3816;DHT22;1923;48.154;11.536;2023-06-22T14:19:54;33.90;89.50
3816;DHT22;1923;48.154;11.536;2023-06-22T14:22:22;34.00;89.40
3816;DHT22;1923;48.154;11.536;2023-06-22T14:24:51;34.00;88.40
3816;DHT22;1923;48.154;11.536;2023-06-22T14:27:19;34.10;88.20
3816;DHT22;1923;48.154;11.536;2023-06-22T14:29:47;34.10;87.50
3816;DHT22;1923;48.154;11.536;2023-06-22T14:32:16;34.20;87.20
3816;DHT22;1923;48.154;11.536;2023-06-22T14:34:45;34.20;87.70
3816;DHT22;1923;48.154;11.536;2023-06-22T14:37:13;33.90;87.90
3816;DHT22;1923;48.154;11.536;2023-06-22T14:39:41;33.90;87.00
3816;DHT22;1923;48.154;11.536;2023-06-22T14:42:09;33.90;86.90
3816;DHT22;1923;48.154;11.536;2023-06-22T14:44:37;33.90;87.30
3816;DHT22;1923;48.154;11.536;2023-06-22T14:47:06;33.80;86.90
3816;DHT22;1923;48.154;11.536;2023-06-22T14:49:36;33.80;85.70
3816;DHT22;1923;48.154;11.536;2023-06-22T14:52:04;33.70;86.50
3816;DHT22;1923;48.154;11.536;2023-06-22T14:54:33;33.60;86.30
3816;DHT22;1923;48.154;11.536;2023-06-22T14:57:01;33.50;86.30
3816;DHT22;1923;48.154;11.536;2023-06-22T14:59:29;33.60;81.50
3816;DHT22;1923;48.154;11.536;2023-06-22T15:01:57;33.70;82.60
3816;DHT22;1923;48.154;11.536;2023-06-22T15:04:26;33.70;84.00
3816;DHT22;1923;48.154;11.536;2023-06-22T15:06:59;33.80;84.10
3816;DHT22;1923;48.154;11.536;2023-06-22T15:09:27;33.90;82.90
3816;DHT22;1923;48.154;11.536;2023-06-22T15:11:55;33.90;82.60
3816;DHT22;1923;48.154;11.536;2023-06-22T15:14:24;33.80;82.10
3816;DHT22;1923;48.154;11.536;2023-06-22T15:16:53;33.80;82.20
3816;DHT22;1923;48.154;11.536;2023-06-22T15:19:21;34.00;82.20
3816;DHT22;1923;48.154;11.536;2023-06-22T15:21:49;33.90;81.40
3816;DHT22;1923;48.154;11.536;2023-06-22T15:24:19;34.00;80.20
3816;DHT22;1923;48.154;11.536;2023-06-22T15:26:47;34.00;78.80
3816;DHT22;1923;48.154;11.536;2023-06-22T15:29:15;33.90;77.80
3816;DHT22;1923;48.154;11.536;2023-06-22T15:31:43;33.80;78.50
3816;DHT22;1923;48.154;11.536;2023-06-22T15:34:13;33.90;79.00
3816;DHT22;1923;48.154;11.536;2023-06-22T15:36:41;33.80;79.30
3816;DHT22;1923;48.154;11.536;2023-06-22T15:39:09;33.90;79.30
3816;DHT22;1923;48.154;11.536;2023-06-22T15:41:41;34.00;77.30
3816;DHT22;1923;48.154;11.536;2023-06-22T15:44:09;33.90;77.00
3816;DHT22;1923;48.154;11.536;2023-06-22T15:46:39;34.00;76.70
3816;DHT22;1923;48.154;11.536;2023-06-22T15:49:11;34.00;78.90
3816;DHT22;1923;48.154;11.536;2023-06-22T15:51:44;34.00;78.40
3816;DHT22;1923;48.154;11.536;2023-06-22T15:54:12;34.00;78.80
3816;DHT22;1923;48.154;11.536;2023-06-22T15:56:41;33.90;80.80